createdAt,value
2022-09-17T00:00:18.823Z,95939.88
2022-09-17T00:02:55.828Z,95941.78
2022-09-17T00:05:28.771Z,95932.53
2022-09-17T00:08:03.434Z,95937.16
2022-09-17T00:10:40.519Z,95939.06
2022-09-17T00:13:13.403Z,95937.09
2022-09-17T00:15:48.159Z,95939.78
2022-09-17T00:18:20.970Z,95939.38
2022-09-17T00:20:53.826Z,95936.66
2022-09-17T00:23:28.492Z,95940.88
2022-09-17T00:26:05.502Z,95942.38
2022-09-17T00:28:38.561Z,95936.56
2022-09-17T00:31:12.195Z,95937.25
2022-09-17T00:33:45.541Z,95938.00
2022-09-17T00:36:20.634Z,95947.56
2022-09-17T00:38:56.314Z,95936.03
2022-09-17T00:41:30.879Z,95937.13
2022-09-17T00:44:44.600Z,95939.81
2022-09-17T00:47:22.650Z,95937.06
2022-09-17T00:49:59.523Z,95941.66
2022-09-17T00:52:37.108Z,95950.09
2022-09-17T00:55:21.277Z,95960.06
2022-09-17T00:57:58.091Z,95957.72
2022-09-17T01:00:32.158Z,95960.03
2022-09-17T01:03:05.460Z,95961.50
2022-09-17T01:05:43.975Z,95961.16
2022-09-17T01:08:26.555Z,95964.97
2022-09-17T01:11:25.620Z,95963.44
2022-09-17T01:14:11.543Z,95959.19
2022-09-17T01:16:53.782Z,95955.72
2022-09-17T01:20:06.285Z,95971.06
2022-09-17T01:22:55.340Z,95974.13
2022-09-17T01:25:39.707Z,95977.19
2022-09-17T01:28:42.865Z,95974.13
2022-09-17T01:31:30.776Z,95970.59
2022-09-17T01:34:14.465Z,95980.59
2022-09-17T01:37:00.463Z,95973.22
2022-09-17T01:39:42.973Z,95971.66
2022-09-17T01:42:20.003Z,95970.50
2022-09-17T01:45:03.092Z,95966.59
2022-09-17T01:47:39.912Z,95976.56
2022-09-17T01:50:18.027Z,95977.28
2022-09-17T01:52:54.794Z,95985.72
2022-09-17T01:55:33.063Z,95983.81
2022-09-17T01:58:18.610Z,95979.56
2022-09-17T02:01:00.734Z,95986.88
2022-09-17T02:03:42.488Z,95984.94
2022-09-17T02:06:21.038Z,95984.94
2022-09-17T02:08:58.469Z,95984.56
2022-09-17T02:11:34.238Z,95993.00
2022-09-17T02:14:11.394Z,95987.25
2022-09-17T02:16:49.387Z,95985.72
2022-09-17T02:19:28.371Z,95986.88
2022-09-17T02:22:04.972Z,95989.13
2022-09-17T02:24:47.692Z,95987.56
2022-09-17T02:27:25.113Z,95997.91
2022-09-17T02:29:57.917Z,96002.88
2022-09-17T02:32:30.905Z,95995.94
2022-09-17T02:35:06.526Z,96000.19
2022-09-17T02:37:39.429Z,95995.50
2022-09-17T02:40:15.314Z,95992.81
2022-09-17T02:43:04.917Z,95993.16
2022-09-17T02:45:51.982Z,95994.31
2022-09-17T02:48:57.265Z,95983.13
2022-09-17T02:51:40.843Z,95985.41
2022-09-17T02:54:25.776Z,95985.00
2022-09-17T02:57:08.957Z,95993.41
2022-09-17T02:59:48.658Z,95992.19
2022-09-17T03:02:26.990Z,95992.56
2022-09-17T03:05:02.217Z,95999.84
2022-09-17T03:07:36.842Z,96001.78
2022-09-17T03:10:10.058Z,96002.53
2022-09-17T03:12:43.323Z,96004.44
2022-09-17T03:15:16.321Z,95997.88
2022-09-17T03:17:53.270Z,96000.22
2022-09-17T03:20:26.385Z,95998.66
2022-09-17T03:23:00.671Z,95995.53
2022-09-17T03:25:33.503Z,95990.81
2022-09-17T03:28:06.309Z,95984.97
2022-09-17T03:30:39.212Z,95987.09
2022-09-17T03:33:12.211Z,95999.56
2022-09-17T03:35:45.222Z,95998.22
2022-09-17T03:38:19.473Z,96001.53
2022-09-17T03:40:59.605Z,96005.19
2022-09-17T03:43:32.433Z,96003.84
2022-09-17T03:46:05.410Z,95994.84
2022-09-17T03:48:40.058Z,95997.06
2022-09-17T03:51:13.278Z,95993.88
2022-09-17T03:53:47.752Z,95991.88
2022-09-17T03:56:20.585Z,95996.75
2022-09-17T03:58:53.719Z,96002.03
2022-09-17T04:01:27.287Z,96017.25
2022-09-17T04:04:00.658Z,96019.44
2022-09-17T04:06:34.047Z,96015.03
2022-09-17T04:09:08.967Z,96026.38
2022-09-17T04:11:41.935Z,96025.44
2022-09-17T04:14:14.738Z,96027.50
2022-09-17T04:16:49.227Z,96028.09
2022-09-17T04:19:22.622Z,96018.69
2022-09-17T04:21:55.504Z,96029.22
2022-09-17T04:24:30.353Z,96035.16
2022-09-17T04:27:03.160Z,96030.72
2022-09-17T04:29:36.556Z,96040.94
2022-09-17T04:32:09.340Z,96048.09
2022-09-17T04:34:42.189Z,96045.31
2022-09-17T04:37:17.206Z,96044.09
2022-09-17T04:39:51.848Z,96043.66
2022-09-17T04:42:24.750Z,96038.97
2022-09-17T04:44:58.102Z,96044.34
2022-09-17T04:47:30.899Z,96049.28
2022-09-17T04:50:05.441Z,96052.75
2022-09-17T04:52:38.379Z,96048.84
2022-09-17T04:55:13.189Z,96048.50
2022-09-17T04:57:48.216Z,96058.09
2022-09-17T05:00:22.138Z,96058.09
2022-09-17T05:02:56.332Z,96063.78
2022-09-17T05:05:29.539Z,96078.28
2022-09-17T05:08:03.272Z,96069.81
2022-09-17T05:10:37.823Z,96070.50
2022-09-17T05:13:10.695Z,96079.56
2022-09-17T05:15:43.646Z,96078.31
2022-09-17T05:18:16.580Z,96083.94
2022-09-17T05:20:49.532Z,96083.81
2022-09-17T05:23:22.434Z,96094.44
2022-09-17T05:26:01.212Z,96094.00
2022-09-17T05:28:34.642Z,96091.56
2022-09-17T05:31:07.510Z,96092.69
2022-09-17T05:33:40.333Z,96097.59
2022-09-17T05:36:13.235Z,96096.47
2022-09-17T05:38:46.112Z,96104.06
2022-09-17T05:41:20.429Z,96118.78
2022-09-17T05:43:53.200Z,96110.06
2022-09-17T05:46:26.095Z,96112.94
2022-09-17T05:48:59.213Z,96123.09
2022-09-17T05:51:32.885Z,96122.59
2022-09-17T05:54:05.929Z,96125.16
2022-09-17T05:56:40.215Z,96128.56
2022-09-17T05:59:14.763Z,96128.09
2022-09-17T06:01:47.917Z,96131.50
2022-09-17T06:04:20.719Z,96131.81
2022-09-17T06:06:53.557Z,96121.03
2022-09-17T06:09:26.803Z,96125.06
2022-09-17T06:12:01.293Z,96129.94
2022-09-17T06:14:34.077Z,96135.84
2022-09-17T06:17:07.077Z,96132.13
2022-09-17T06:19:39.869Z,96136.88
2022-09-17T06:22:12.674Z,96129.34
2022-09-17T06:24:45.459Z,96135.56
2022-09-17T06:27:19.803Z,96136.88
2022-09-17T06:29:52.630Z,96140.41
2022-09-17T06:32:25.484Z,96145.50
2022-09-17T06:34:58.578Z,96146.84
2022-09-17T06:37:32.603Z,96151.59
2022-09-17T06:40:05.968Z,96159.34
2022-09-17T06:42:40.201Z,96163.34
2022-09-17T06:45:16.573Z,96165.31
2022-09-17T06:47:49.799Z,96166.97
2022-09-17T06:50:22.641Z,96176.25
2022-09-17T06:52:56.157Z,96177.44
2022-09-17T06:55:29.348Z,96181.38
2022-09-17T06:58:03.779Z,96183.00
2022-09-17T07:00:37.250Z,96193.06
2022-09-17T07:03:10.743Z,96187.69
2022-09-17T07:05:45.359Z,96179.34
2022-09-17T07:08:18.231Z,96179.78
2022-09-17T07:10:51.045Z,96176.06
2022-09-17T07:13:25.598Z,96181.94
2022-09-17T07:16:00.379Z,96178.59
2022-09-17T07:18:33.924Z,96186.81
2022-09-17T07:21:11.681Z,96185.50
2022-09-17T07:23:45.865Z,96189.53
2022-09-17T07:26:19.160Z,96192.81
2022-09-17T07:28:53.456Z,96204.56
2022-09-17T07:31:26.381Z,96210.50
2022-09-17T07:33:59.836Z,96200.31
2022-09-17T07:36:32.967Z,96195.91
2022-09-17T07:39:06.199Z,96190.75
2022-09-17T07:41:40.422Z,96192.09
2022-09-17T07:44:14.948Z,96195.69
2022-09-17T07:46:48.406Z,96185.75
2022-09-17T07:49:21.296Z,96189.66
2022-09-17T07:51:54.867Z,96201.69
2022-09-17T07:54:27.698Z,96201.72
2022-09-17T07:57:00.837Z,96209.53
2022-09-17T07:59:35.426Z,96205.75
2022-09-17T08:02:13.318Z,96201.69
2022-09-17T08:04:46.303Z,96204.56
2022-09-17T08:07:20.658Z,96200.50
2022-09-17T08:09:53.499Z,96201.09
2022-09-17T08:12:26.313Z,96210.91
2022-09-17T08:15:00.576Z,96204.13
2022-09-17T08:17:33.378Z,96208.88
2022-09-17T08:20:07.820Z,96212.44
2022-09-17T08:22:40.898Z,96209.84
2022-09-17T08:25:13.713Z,96213.03
2022-09-17T08:27:46.616Z,96221.63
2022-09-17T08:30:20.930Z,96227.97
2022-09-17T08:32:56.866Z,96214.19
2022-09-17T08:35:29.824Z,96223.91
2022-09-17T08:38:02.688Z,96235.22
2022-09-17T08:40:44.197Z,96232.19
2022-09-17T08:43:20.483Z,96242.63
2022-09-17T08:45:56.632Z,96241.22
2022-09-17T08:48:38.565Z,96240.50
2022-09-17T08:51:25.912Z,96236.31
2022-09-17T08:54:07.902Z,96247.94
2022-09-17T08:56:43.547Z,96241.00
2022-09-17T08:59:24.237Z,96238.28
2022-09-17T09:02:04.255Z,96227.44
2022-09-17T09:05:00.102Z,96232.03
2022-09-17T09:07:39.046Z,96225.81
2022-09-17T09:10:22.494Z,96227.00
2022-09-17T09:12:57.629Z,96226.28
2022-09-17T09:15:38.644Z,96222.88
2022-09-17T09:18:20.213Z,96226.84
2022-09-17T09:20:55.848Z,96221.16
2022-09-17T09:23:36.255Z,96229.34
2022-09-17T09:26:17.183Z,96219.38
2022-09-17T09:29:05.837Z,96216.69
2022-09-17T09:32:01.350Z,96211.69
2022-09-17T09:34:37.440Z,96209.00
2022-09-17T09:37:16.954Z,96213.25
2022-09-17T09:39:51.776Z,96204.72
2022-09-17T09:42:30.897Z,96215.16
2022-09-17T09:45:15.410Z,96222.13
2022-09-17T09:48:00.486Z,96216.72
2022-09-17T09:51:05.762Z,96206.31
2022-09-17T09:53:50.749Z,96218.34
2022-09-17T09:56:39.909Z,96216.84
2022-09-17T09:59:13.159Z,96209.19
2022-09-17T10:01:46.412Z,96221.31
2022-09-17T10:04:22.474Z,96224.13
2022-09-17T10:07:03.872Z,96221.53
2022-09-17T10:09:38.946Z,96228.97
2022-09-17T10:12:18.118Z,96226.31
2022-09-17T10:14:51.119Z,96229.09
2022-09-17T10:17:25.550Z,96228.78
2022-09-17T10:20:23.362Z,96224.97
2022-09-17T10:22:57.777Z,96221.50
2022-09-17T10:25:32.982Z,96217.63
2022-09-17T10:28:23.983Z,96228.88
2022-09-17T10:30:58.923Z,96226.16
2022-09-17T10:33:32.999Z,96224.94
2022-09-17T10:36:08.790Z,96232.19
2022-09-17T10:38:46.264Z,96239.50
2022-09-17T10:41:21.919Z,96229.34
2022-09-17T10:43:54.745Z,96225.06
2022-09-17T10:46:29.880Z,96234.28
2022-09-17T10:49:11.823Z,96232.69
2022-09-17T10:51:45.661Z,96241.97
2022-09-17T10:54:41.869Z,96232.28
2022-09-17T10:57:25.884Z,96224.94
2022-09-17T11:00:07.238Z,96223.81
2022-09-17T11:03:19.501Z,96238.91
2022-09-17T11:06:14.659Z,96231.66
2022-09-17T11:08:58.821Z,96235.19
2022-09-17T11:11:42.370Z,96227.88
2022-09-17T11:14:33.615Z,96218.28
2022-09-17T11:17:18.551Z,96224.56
2022-09-17T11:20:00.246Z,96226.13
2022-09-17T11:22:39.648Z,96227.69
2022-09-17T11:25:34.833Z,96247.06
2022-09-17T11:28:22.065Z,96252.44
2022-09-17T11:31:10.773Z,96248.91
2022-09-17T11:34:09.434Z,96249.97
2022-09-17T11:36:50.186Z,96245.25
2022-09-17T11:39:28.714Z,96243.59
2022-09-17T11:42:07.822Z,96237.28
2022-09-17T11:44:49.160Z,96234.50
2022-09-17T11:47:26.463Z,96230.13
2022-09-17T11:50:04.182Z,96222.34
2022-09-17T11:52:42.016Z,96221.50
2022-09-17T11:55:23.559Z,96219.91
2022-09-17T11:58:03.043Z,96219.44
2022-09-17T12:00:46.652Z,96222.13
2022-09-17T12:03:29.780Z,96218.59
2022-09-17T12:06:08.307Z,96202.38
2022-09-17T12:08:45.515Z,96210.06
2022-09-17T12:11:21.847Z,96209.66
2022-09-17T12:13:58.886Z,96205.81
2022-09-17T12:16:39.592Z,96201.97
2022-09-17T12:19:18.585Z,96202.78
2022-09-17T12:21:55.632Z,96206.69
2022-09-17T12:24:30.727Z,96206.00
2022-09-17T12:27:11.928Z,96199.16
2022-09-17T12:30:04.330Z,96201.59
2022-09-17T12:32:54.745Z,96209.06
2022-09-17T12:39:03.054Z,96208.69
2022-09-17T12:41:47.545Z,96215.19
2022-09-17T12:44:36.897Z,96215.91
2022-09-17T12:47:27.311Z,96214.19
2022-09-17T12:50:20.413Z,96211.75
2022-09-17T12:53:05.545Z,96221.31
2022-09-17T12:55:52.206Z,96220.09
2022-09-17T12:58:38.705Z,96221.25
2022-09-17T13:01:19.373Z,96216.63
2022-09-17T13:03:57.362Z,96228.25
2022-09-17T13:07:05.386Z,96224.06
2022-09-17T13:10:03.965Z,96224.47
2022-09-17T13:12:40.898Z,96229.94
2022-09-17T13:15:40.188Z,96220.31
2022-09-17T13:18:26.692Z,96229.25
2022-09-17T13:21:05.559Z,96222.28
2022-09-17T13:23:43.561Z,96229.66
2022-09-17T13:26:19.700Z,96230.09
2022-09-17T13:28:53.705Z,96224.78
2022-09-17T13:31:48.965Z,96212.47
2022-09-17T13:34:31.103Z,96211.75
2022-09-17T13:37:04.891Z,96213.34
2022-09-17T13:39:41.972Z,96208.38
2022-09-17T13:42:19.628Z,96204.97
2022-09-17T13:45:03.141Z,96216.19
2022-09-17T13:47:38.206Z,96215.81
2022-09-17T13:50:13.677Z,96220.50
2022-09-17T13:52:50.255Z,96224.75
2022-09-17T13:55:40.662Z,96218.22
2022-09-17T13:58:23.001Z,96227.09
2022-09-17T14:00:58.683Z,96222.91
2022-09-17T14:03:52.659Z,96223.69
2022-09-17T14:06:51.501Z,96231.88
2022-09-17T14:09:50.302Z,96217.97
2022-09-17T14:13:21.478Z,96227.63
2022-09-17T14:16:02.117Z,96231.50
2022-09-17T14:18:46.338Z,96228.41
2022-09-17T14:21:26.906Z,96231.47
2022-09-17T14:24:02.606Z,96226.38
2022-09-17T14:26:50.777Z,96229.84
2022-09-17T14:29:41.069Z,96248.34
2022-09-17T14:32:20.922Z,96233.59
2022-09-17T14:34:53.851Z,96238.19
2022-09-17T14:37:27.815Z,96242.72
2022-09-17T14:40:00.896Z,96253.44
2022-09-17T14:42:38.378Z,96246.78
2022-09-17T14:45:18.708Z,96262.84
2022-09-17T14:48:11.612Z,96264.22
2022-09-17T14:50:44.495Z,96255.28
2022-09-17T14:53:19.920Z,96259.78
2022-09-17T14:55:53.031Z,96261.59
2022-09-17T14:58:32.952Z,96265.38
2022-09-17T15:01:07.567Z,96263.75
2022-09-17T15:03:40.414Z,96272.53
2022-09-17T15:06:21.879Z,96256.66
2022-09-17T15:08:58.807Z,96272.03
2022-09-17T15:11:32.683Z,96266.94
2022-09-17T15:14:08.168Z,96265.78
2022-09-17T15:16:49.318Z,96252.69
2022-09-17T15:19:25.363Z,96256.59
2022-09-17T15:21:59.830Z,96249.66
2022-09-17T15:24:41.315Z,96248.09
2022-09-17T15:27:21.611Z,96256.91
2022-09-17T15:29:57.924Z,96259.53
2022-09-17T15:32:32.391Z,96252.06
2022-09-17T15:35:18.744Z,96248.88
2022-09-17T15:38:21.127Z,96245.66
2022-09-17T15:40:47.164Z,96248.97
2022-09-17T15:43:32.001Z,96244.19
2022-09-17T15:46:27.745Z,96242.91
2022-09-17T15:49:04.304Z,96235.09
2022-09-17T15:51:37.841Z,96237.25
2022-09-17T15:54:37.852Z,96246.03
2022-09-17T15:57:17.020Z,96245.09
2022-09-17T15:59:50.439Z,96247.34
2022-09-17T16:02:28.408Z,96248.81
2022-09-17T16:05:46.855Z,96247.97
2022-09-17T16:08:25.067Z,96253.00
2022-09-17T16:10:57.947Z,96258.41
2022-09-17T16:13:30.755Z,96266.13
2022-09-17T16:16:04.079Z,96269.25
2022-09-17T16:18:36.932Z,96261.16
2022-09-17T16:21:12.224Z,96281.22
2022-09-17T16:23:45.874Z,96282.38
2022-09-17T16:26:23.682Z,96283.19
2022-09-17T16:29:03.350Z,96282.06
2022-09-17T16:31:36.168Z,96290.56
2022-09-17T16:34:09.032Z,96281.00
2022-09-17T16:36:43.515Z,96280.34
2022-09-17T16:39:16.320Z,96286.56
2022-09-17T16:41:49.214Z,96280.44
2022-09-17T16:44:22.024Z,96285.50
2022-09-17T16:46:55.216Z,96282.00
2022-09-17T16:49:28.236Z,96286.94
2022-09-17T16:52:02.784Z,96291.13
2022-09-17T16:54:35.674Z,96287.09
2022-09-17T16:57:08.454Z,96294.28
2022-09-17T16:59:41.353Z,96287.56
2022-09-17T17:02:14.413Z,96288.94
2022-09-17T17:04:47.503Z,96294.91
2022-09-17T17:07:24.460Z,96292.81
2022-09-17T17:09:59.215Z,96294.91
2022-09-17T17:12:32.372Z,96289.66
2022-09-17T17:15:10.381Z,96292.19
2022-09-17T17:17:43.232Z,96291.97
2022-09-17T17:20:16.910Z,96295.63
2022-09-17T17:22:52.025Z,96296.66
2022-09-17T17:25:25.285Z,96303.09
2022-09-17T17:27:58.078Z,96296.88
2022-09-17T17:30:34.870Z,96310.31
2022-09-17T17:33:08.203Z,96307.56
2022-09-17T17:35:41.169Z,96305.91
2022-09-17T17:38:15.373Z,96303.22
2022-09-17T17:40:48.272Z,96304.69
2022-09-17T17:43:21.335Z,96298.91
2022-09-17T17:45:54.297Z,96297.69
2022-09-17T17:48:27.242Z,96311.50
2022-09-17T17:51:04.131Z,96310.28
2022-09-17T17:53:42.069Z,96323.66
2022-09-17T17:56:16.994Z,96315.44
2022-09-17T17:58:54.776Z,96324.47
2022-09-17T18:01:29.782Z,96327.44
2022-09-17T18:04:05.300Z,96326.59
2022-09-17T18:06:38.360Z,96325.34
2022-09-17T18:09:12.503Z,96333.78
2022-09-17T18:11:45.816Z,96334.44
2022-09-17T18:14:18.763Z,96339.06
2022-09-17T18:16:51.592Z,96345.22
2022-09-17T18:19:24.709Z,96356.41
2022-09-17T18:21:57.896Z,96343.75
2022-09-17T18:24:32.308Z,96359.19
2022-09-17T18:27:05.477Z,96354.59
2022-09-17T18:29:39.365Z,96353.88
2022-09-17T18:32:12.220Z,96360.47
2022-09-17T18:34:45.281Z,96370.19
2022-09-17T18:37:18.149Z,96374.06
2022-09-17T18:39:59.854Z,96377.97
2022-09-17T18:42:33.128Z,96380.31
2022-09-17T18:45:07.436Z,96384.25
2022-09-17T18:47:40.749Z,96390.03
2022-09-17T18:50:14.399Z,96398.53
2022-09-17T18:52:47.318Z,96400.09
2022-09-17T18:55:21.603Z,96409.38
2022-09-17T18:57:54.472Z,96412.84
2022-09-17T19:00:27.334Z,96419.75
2022-09-17T19:03:00.167Z,96415.16
2022-09-17T19:05:33.253Z,96422.44
2022-09-17T19:08:06.189Z,96424.81
2022-09-17T19:10:40.653Z,96424.03
2022-09-17T19:13:13.845Z,96429.84
2022-09-17T19:15:46.903Z,96432.88
2022-09-17T19:18:19.908Z,96440.94
2022-09-17T19:20:52.739Z,96450.50
2022-09-17T19:23:25.601Z,96455.44
2022-09-17T19:26:06.419Z,96461.50
2022-09-17T19:28:39.683Z,96461.00
2022-09-17T19:31:15.039Z,96462.03
2022-09-17T19:33:48.029Z,96466.09
2022-09-17T19:36:21.838Z,96465.94
2022-09-17T19:38:55.731Z,96461.50
2022-09-17T19:41:32.817Z,96466.31
2022-09-17T19:44:06.188Z,96464.59
2022-09-17T19:46:39.382Z,96466.75
2022-09-17T19:49:14.159Z,96456.59
2022-09-17T19:51:47.530Z,96462.66
2022-09-17T19:54:20.783Z,96462.13
2022-09-17T19:56:55.473Z,96467.84
2022-09-17T19:59:30.442Z,96464.63
2022-09-17T20:02:03.561Z,96460.72
2022-09-17T20:04:36.906Z,96467.19
2022-09-17T20:07:10.143Z,96474.78
2022-09-17T20:09:43.814Z,96471.31
2022-09-17T20:12:18.350Z,96472.44
2022-09-17T20:14:52.540Z,96475.13
2022-09-17T20:17:28.974Z,96478.19
2022-09-17T20:20:02.338Z,96478.41
2022-09-17T20:22:35.582Z,96474.50
2022-09-17T20:25:12.540Z,96481.34
2022-09-17T20:27:51.244Z,96476.31
2022-09-17T20:30:24.896Z,96473.88
2022-09-17T20:32:58.077Z,96474.88
2022-09-17T20:35:31.264Z,96473.22
2022-09-17T20:39:09.366Z,96477.38
2022-09-17T20:41:03.624Z,96480.38
2022-09-17T20:43:40.299Z,96478.38
2022-09-17T20:46:17.168Z,96478.28
2022-09-17T20:48:53.463Z,96490.91
2022-09-17T20:51:28.192Z,96493.94
2022-09-17T20:54:06.865Z,96496.28
2022-09-17T20:56:39.981Z,96494.28
2022-09-17T20:59:21.134Z,96488.56
2022-09-17T21:01:56.144Z,96490.47
2022-09-17T21:04:29.693Z,96492.81
2022-09-17T21:07:02.547Z,96500.53
2022-09-17T21:09:43.266Z,96500.19
2022-09-17T21:12:16.122Z,96501.00
2022-09-17T21:14:50.402Z,96503.31
2022-09-17T21:17:23.340Z,96501.75
2022-09-17T21:19:56.290Z,96499.06
2022-09-17T21:22:29.817Z,96502.53
2022-09-17T21:25:02.689Z,96502.09
2022-09-17T21:27:35.992Z,96505.91
2022-09-17T21:30:11.929Z,96507.81
2022-09-17T21:32:46.073Z,96504.22
2022-09-17T21:35:18.892Z,96509.91
2022-09-17T21:37:53.371Z,96507.16
2022-09-17T21:40:26.338Z,96510.16
2022-09-17T21:42:59.231Z,96510.03
2022-09-17T21:45:33.627Z,96508.50
2022-09-17T21:48:06.496Z,96512.31
2022-09-17T21:50:39.719Z,96502.69
2022-09-17T21:53:12.599Z,96500.47
2022-09-17T21:55:45.482Z,96506.59
2022-09-17T21:58:18.470Z,96510.50
2022-09-17T22:00:52.863Z,96502.56
2022-09-17T22:03:25.741Z,96513.75
2022-09-17T22:06:03.794Z,96512.72
2022-09-17T22:08:36.716Z,96515.41
2022-09-17T22:11:12.456Z,96519.31
2022-09-17T22:13:53.428Z,96517.84
2022-09-17T22:16:30.823Z,96509.78
2022-09-17T22:19:05.659Z,96514.84
2022-09-17T22:21:40.975Z,96515.28
2022-09-17T22:24:16.084Z,96511.16
2022-09-17T22:26:56.874Z,96511.16
2022-09-17T22:29:32.145Z,96513.50
2022-09-17T22:32:06.905Z,96513.59
2022-09-17T22:34:39.782Z,96519.28
2022-09-17T22:37:13.117Z,96519.75
2022-09-17T22:39:47.084Z,96517.06
2022-09-17T22:42:19.933Z,96511.69
2022-09-17T22:44:52.931Z,96512.81
2022-09-17T22:47:27.129Z,96517.06
2022-09-17T22:50:00.021Z,96505.44
2022-09-17T22:52:33.030Z,96503.88
2022-09-17T22:55:06.564Z,96508.78
2022-09-17T22:57:39.334Z,96509.47
2022-09-17T23:00:13.186Z,96508.25
2022-09-17T23:02:47.626Z,96505.13
2022-09-17T23:05:20.657Z,96511.94
2022-09-17T23:07:54.254Z,96514.97
2022-09-17T23:10:27.162Z,96512.59
2022-09-17T23:13:00.001Z,96512.19
2022-09-17T23:15:33.443Z,96514.88
2022-09-17T23:18:08.438Z,96513.31
2022-09-17T23:20:41.294Z,96514.75
2022-09-17T23:23:14.116Z,96506.25
2022-09-17T23:25:46.967Z,96509.28
2022-09-17T23:28:21.301Z,96506.94
2022-09-17T23:30:54.207Z,96505.69
2022-09-17T23:33:28.446Z,96505.69
2022-09-17T23:36:05.064Z,96507.59
2022-09-17T23:38:37.842Z,96505.59
2022-09-17T23:41:12.801Z,96510.94
2022-09-17T23:43:47.766Z,96511.63
2022-09-17T23:46:21.991Z,96515.09
2022-09-17T23:48:56.256Z,96512.44
2022-09-17T23:51:31.890Z,96512.09
2022-09-17T23:54:09.403Z,96510.16
2022-09-17T23:56:42.330Z,96513.31
2022-09-17T23:59:15.276Z,96509.97
